Time;durP1;ratioP1;P1;durP2;ratioP2;P2;SDS_P1;SDS_P2;PMS_P1;PMS_P2;Temp;Humidity;BMP_temperature;BMP_pressure;BME280_temperature;BME280_humidity;BME280_pressure;Samples;Min_cycle;Max_cycle;Signal;HPM_P1;HPM_P2
2022/11/08 00:02:49;;;;;;;11.55;3.10;;;;;;;11.96;100.00;100828.22;5115542;28;20085;-57
2022/11/08 00:16:22;;;;;;;10.50;2.97;;;;;;;11.80;100.00;100830.22;5115378;28;20043;-50
2022/11/08 00:18:51;;;;;;;9.68;2.47;;;;;;;11.83;100.00;100827.34;5115536;28;20119;-50
2022/11/08 00:21:19;;;;;;;10.85;2.85;;;;;;;11.72;100.00;100832.53;5111822;28;20044;-53
2022/11/08 00:23:48;;;;;;;14.40;2.90;;;;;;;11.71;100.00;100829.09;5112958;28;20047;-51
2022/11/08 00:26:16;;;;;;;9.13;2.03;;;;;;;11.65;100.00;100830.31;5113352;27;20510;-53
2022/11/08 00:28:44;;;;;;;12.55;2.67;;;;;;;11.60;100.00;100832.47;5111679;28;20079;-51
2022/11/08 00:31:12;;;;;;;8.20;2.47;;;;;;;11.62;100.00;100838.44;5114349;28;20147;-53
2022/11/08 00:33:40;;;;;;;10.23;2.95;;;;;;;11.61;100.00;100831.50;5114906;28;20048;-53
2022/11/08 00:36:10;;;;;;;8.05;2.47;;;;;;;11.52;100.00;100832.16;5115307;28;20539;-53
2022/11/08 00:38:41;;;;;;;13.25;2.80;;;;;;;11.57;100.00;100830.03;5115025;28;20079;-54
2022/11/08 00:41:09;;;;;;;11.00;2.55;;;;;;;11.43;100.00;100830.16;5112293;28;20051;-54
2022/11/08 00:43:37;;;;;;;12.15;2.90;;;;;;;11.40;100.00;100830.34;5113589;28;20146;-57
2022/11/08 00:46:05;;;;;;;9.75;3.50;;;;;;;11.36;100.00;100823.59;5114445;28;20052;-56
2022/11/08 00:48:33;;;;;;;12.30;3.28;;;;;;;11.26;100.00;100819.00;5110478;28;20441;-56
2022/11/08 00:51:02;;;;;;;11.15;2.83;;;;;;;11.26;100.00;100826.03;5110822;28;20114;-57
2022/11/08 00:53:32;;;;;;;9.55;2.63;;;;;;;11.17;100.00;100822.25;5111030;28;20162;-56
2022/11/08 00:56:04;;;;;;;9.65;2.92;;;;;;;11.20;100.00;100821.19;5110551;28;20044;-56
2022/11/08 00:58:32;;;;;;;8.13;2.50;;;;;;;11.13;100.00;100811.06;5111100;28;20445;-56
2022/11/08 01:01:00;;;;;;;7.95;3.05;;;;;;;11.04;100.00;100808.22;5114321;28;20798;-56
2022/11/08 01:03:28;;;;;;;9.27;3.00;;;;;;;11.03;100.00;100815.28;5110633;28;20101;-57
2022/11/08 01:05:56;;;;;;;8.60;2.78;;;;;;;11.05;100.00;100815.19;5111958;27;20074;-56
2022/11/08 01:08:25;;;;;;;11.73;2.83;;;;;;;10.96;100.00;100814.84;5112213;28;20059;-56
2022/11/08 01:10:54;;;;;;;9.80;2.40;;;;;;;10.95;100.00;100814.97;5110435;28;20054;-56
2022/11/08 01:13:22;;;;;;;9.05;3.08;;;;;;;10.89;100.00;100810.09;5114319;28;20106;-57
2022/11/08 01:15:50;;;;;;;13.27;3.38;;;;;;;10.87;100.00;100809.38;5113616;28;20055;-56
2022/11/08 01:18:19;;;;;;;11.55;2.97;;;;;;;10.82;100.00;100814.94;5109954;28;20551;-56
2022/11/08 01:20:49;;;;;;;11.35;2.58;;;;;;;10.85;100.00;100804.19;5112247;28;20456;-56
2022/11/08 01:23:18;;;;;;;8.63;2.78;;;;;;;10.80;100.00;100807.13;5110911;28;20051;-56
2022/11/08 01:25:47;;;;;;;12.77;2.92;;;;;;;10.71;100.00;100802.47;5109741;28;20063;-56
2022/11/08 01:28:17;;;;;;;17.58;3.25;;;;;;;10.72;100.00;100809.44;5110747;28;20043;-56
2022/11/08 01:30:46;;;;;;;7.70;2.95;;;;;;;10.72;100.00;100809.44;5110626;28;20040;-56
2022/11/08 01:33:15;;;;;;;8.90;2.80;;;;;;;10.74;100.00;100807.53;5110170;28;20051;-56
2022/11/08 01:35:45;;;;;;;8.73;2.83;;;;;;;10.74;100.00;100814.59;5110140;28;20126;-55
2022/11/08 01:38:13;;;;;;;12.70;3.42;;;;;;;10.74;100.00;100802.28;5110463;28;20048;-56
2022/11/08 01:40:43;;;;;;;10.95;2.78;;;;;;;10.67;100.00;100801.00;5109494;28;20043;-56
2022/11/08 01:43:38;;;;;;;11.07;3.50;;;;;;;10.70;100.00;100795.53;5110457;28;20461;-56
2022/11/08 01:46:32;;;;;;;10.95;3.13;;;;;;;10.67;100.00;100792.28;5110644;28;20048;-56
2022/11/08 01:49:23;;;;;;;8.32;3.00;;;;;;;10.61;100.00;100783.00;5110768;28;20051;-56
2022/11/08 01:51:57;;;;;;;11.15;2.85;;;;;;;10.59;100.00;100787.50;5110206;28;20417;-55
2022/11/08 01:54:31;;;;;;;10.77;2.78;;;;;;;10.55;100.00;100786.91;5109609;28;20108;-56
2022/11/08 01:57:04;;;;;;;8.45;3.05;;;;;;;10.54;100.00;100784.34;5113147;28;20048;-55
2022/11/08 01:59:37;;;;;;;11.52;2.92;;;;;;;10.50;100.00;100765.31;5110368;27;20055;-56
2022/11/08 02:02:07;;;;;;;8.40;2.72;;;;;;;10.50;100.00;100765.31;5110626;28;20048;-56
2022/11/08 02:04:37;;;;;;;11.02;3.10;;;;;;;10.45;100.00;100759.50;5110086;28;20516;-56
2022/11/08 02:07:07;;;;;;;8.90;3.05;;;;;;;10.47;100.00;100763.72;5109813;28;20469;-56
2022/11/08 02:09:38;;;;;;;8.63;3.05;;;;;;;10.45;100.00;100759.50;5108824;28;20043;-56
2022/11/08 02:12:09;;;;;;;11.80;3.28;;;;;;;10.42;100.00;100759.72;5110581;28;20044;-56
2022/11/08 02:14:40;;;;;;;;;;;;;;;10.38;100.00;100752.97;5110322;28;20055;-55
2022/11/08 02:17:09;;;;;;;10.48;3.28;;;;;;;10.38;100.00;100745.09;5110249;28;20393;-56
2022/11/08 02:19:41;;;;;;;10.60;3.05;;;;;;;10.41;100.00;100737.81;5110383;28;20036;-56
2022/11/08 02:22:18;;;;;;;8.13;2.73;;;;;;;10.37;100.00;100738.13;5113496;28;20039;-55
2022/11/08 02:24:48;;;;;;;10.25;3.22;;;;;;;10.35;100.00;100733.00;5112705;28;20498;-56
2022/11/08 02:27:16;;;;;;;12.00;3.53;;;;;;;10.31;100.00;100726.22;5112575;28;20491;-56
2022/11/08 02:29:44;;;;;;;11.30;3.33;;;;;;;10.30;100.00;100722.72;5112658;28;20558;-56
2022/11/08 02:32:12;;;;;;;8.32;2.80;;;;;;;10.32;100.00;100728.75;5112766;28;20047;-55
2022/11/08 02:34:44;;;;;;;13.85;3.22;;;;;;;10.33;100.00;100724.31;5112498;28;20039;-55
2022/11/08 02:37:16;;;;;;;11.07;3.53;;;;;;;10.30;100.00;100716.63;5111317;28;20105;-56
2022/11/08 02:39:45;;;;;;;7.28;2.95;;;;;;;10.35;100.00;100719.84;5108217;28;20096;-55
2022/11/08 02:42:17;;;;;;;9.20;3.15;;;;;;;10.37;100.00;100709.22;5109310;28;20051;-56
2022/11/08 02:44:45;;;;;;;10.20;2.80;;;;;;;10.28;100.00;100702.75;5107533;28;20040;-56
2022/11/08 02:47:14;;;;;;;10.45;2.83;;;;;;;10.26;100.00;100708.09;5109330;28;20053;-54
2022/11/08 02:49:42;;;;;;;12.18;3.13;;;;;;;10.27;100.00;100709.78;5109274;28;20082;-55
2022/11/08 02:52:11;;;;;;;9.98;2.88;;;;;;;10.22;100.00;100697.91;5110846;28;20067;-54
2022/11/08 02:54:39;;;;;;;11.73;3.17;;;;;;;10.23;100.00;100692.53;5109588;28;20044;-54
2022/11/08 02:57:07;;;;;;;7.93;3.00;;;;;;;10.24;100.00;100698.63;5109334;28;20096;-55
2022/11/08 02:59:36;;;;;;;16.52;3.08;;;;;;;10.20;100.00;100691.91;5112077;28;20043;-55
2022/11/08 03:02:05;;;;;;;12.05;3.15;;;;;;;10.20;100.00;100700.63;5112649;28;20047;-53
2022/11/08 03:04:33;;;;;;;10.25;3.00;;;;;;;10.21;100.00;100689.19;5112668;28;20035;-55
2022/11/08 03:07:01;;;;;;;10.18;2.88;;;;;;;10.26;100.00;100696.75;5113332;28;20044;-53
2022/11/08 03:09:29;;;;;;;12.38;3.20;;;;;;;10.26;100.00;100702.00;5112570;28;20339;-56
2022/11/08 03:11:58;;;;;;;11.05;2.95;;;;;;;10.28;100.00;100692.22;5112387;28;20118;-55
2022/11/08 03:14:26;;;;;;;9.45;2.55;;;;;;;10.26;100.00;100686.25;5113590;28;20059;-55
2022/11/08 03:16:55;;;;;;;8.32;3.13;;;;;;;10.27;100.00;100688.78;5112825;28;20043;-55
2022/11/08 03:19:23;;;;;;;11.93;3.03;;;;;;;10.28;100.00;100679.94;5113243;28;20573;-56
2022/11/08 03:21:51;;;;;;;10.05;2.78;;;;;;;10.27;100.00;100680.06;5112731;28;20509;-55
2022/11/08 03:24:19;;;;;;;9.15;2.67;;;;;;;10.28;100.00;100684.34;5110911;28;20096;-55
2022/11/08 03:26:47;;;;;;;9.65;2.65;;;;;;;10.28;100.00;100681.72;5115358;28;20053;-55
2022/11/08 03:29:15;;;;;;;10.73;2.65;;;;;;;10.26;100.00;100681.81;5112799;28;20048;-55
2022/11/08 03:31:44;;;;;;;7.63;2.42;;;;;;;10.27;100.00;100669.53;5114434;28;20058;-55
2022/11/08 03:34:13;;;;;;;8.02;2.42;;;;;;;10.28;100.00;100664.19;5114217;27;20075;-55
2022/11/08 03:36:41;;;;;;;10.02;2.15;;;;;;;10.25;100.00;100668.78;5112291;28;20053;-55
2022/11/08 03:39:10;;;;;;;9.68;2.85;;;;;;;10.20;100.00;100660.34;5112715;28;20055;-55
2022/11/08 03:41:38;;;;;;;8.50;2.58;;;;;;;10.26;100.00;100657.34;5116591;28;20617;-53
2022/11/08 03:44:06;;;;;;;8.05;2.22;;;;;;;10.18;100.00;100652.56;5114891;28;20428;-55
2022/11/08 03:46:34;;;;;;;6.65;2.33;;;;;;;10.15;100.00;100653.63;5112509;28;20050;-55
2022/11/08 03:49:03;;;;;;;8.00;2.40;;;;;;;10.15;100.00;100652.78;5112461;28;20043;-54
2022/11/08 03:51:32;;;;;;;6.32;2.10;;;;;;;10.18;100.00;100657.00;5112361;28;20142;-54
2022/11/08 03:54:00;;;;;;;11.52;2.67;;;;;;;10.17;100.00;100653.53;5115759;28;20043;-54
2022/11/08 03:56:28;;;;;;;8.27;2.17;;;;;;;10.12;100.00;100639.88;5115686;28;20130;-54
2022/11/08 03:58:56;;;;;;;11.20;2.30;;;;;;;10.19;100.00;100640.31;5114374;27;20050;-55
2022/11/08 04:01:27;;;;;;;7.95;2.20;;;;;;;10.18;100.00;100626.31;5112558;28;20048;-55
2022/11/08 04:03:55;;;;;;;6.85;2.33;;;;;;;10.15;100.00;100614.19;5111989;27;20048;-54
2022/11/08 04:06:23;;;;;;;8.93;2.40;;;;;;;10.17;100.00;100600.97;5111775;28;20442;-54
2022/11/08 04:08:53;;;;;;;8.68;2.38;;;;;;;10.14;100.00;100591.53;5111761;28;20044;-53
2022/11/08 04:16:55;;;;;;;8.50;1.90;;;;;;;10.18;100.00;100572.91;5115716;28;20044;-52
2022/11/08 04:22:11;;;;;;;7.82;1.90;;;;;;;10.16;100.00;100580.91;5112406;28;20101;-55
2022/11/08 04:24:41;;;;;;;4.63;1.85;;;;;;;10.11;100.00;100578.56;5109602;28;20055;-54
2022/11/08 04:27:09;;;;;;;9.88;2.10;;;;;;;10.18;100.00;100584.25;5111633;28;20043;-54
2022/11/08 04:29:37;;;;;;;7.25;2.00;;;;;;;10.15;100.00;100569.53;5111541;28;20083;-54
2022/11/08 04:32:05;;;;;;;9.32;2.03;;;;;;;10.18;100.00;100563.22;5110541;28;20087;-54
2022/11/08 04:34:33;;;;;;;6.75;1.98;;;;;;;10.17;100.00;100566.81;5113078;28;20092;-54
2022/11/08 04:37:01;;;;;;;8.48;1.92;;;;;;;10.19;100.00;100559.66;5112751;28;20067;-54
2022/11/08 04:39:29;;;;;;;9.68;2.05;;;;;;;10.15;100.00;100563.44;5110617;28;20043;-54
2022/11/08 04:41:59;;;;;;;6.45;1.77;;;;;;;10.09;100.00;100553.34;5112430;28;20527;-54
2022/11/08 04:44:29;;;;;;;7.65;2.50;;;;;;;10.07;100.00;100557.88;5113846;28;20768;-55
2022/11/08 04:46:57;;;;;;;6.97;1.88;;;;;;;10.01;100.00;100559.13;5111535;28;20052;-54
2022/11/08 04:49:25;;;;;;;8.13;2.17;;;;;;;10.04;100.00;100550.19;5113555;28;20106;-52
2022/11/08 04:51:54;;;;;;;8.30;2.10;;;;;;;10.03;100.00;100551.13;5112048;28;20108;-54
2022/11/08 04:54:22;;;;;;;7.57;2.25;;;;;;;10.08;100.00;100556.94;5110794;28;20051;-53
2022/11/08 04:56:50;;;;;;;7.43;2.25;;;;;;;10.06;100.00;100551.78;5113367;28;20053;-54
2022/11/08 04:59:19;;;;;;;10.35;2.30;;;;;;;10.08;100.00;100546.41;5111637;28;20100;-53
2022/11/08 05:01:47;;;;;;;7.53;2.42;;;;;;;10.04;100.00;100545.78;5110856;28;20074;-54
2022/11/08 05:04:16;;;;;;;6.47;2.20;;;;;;;9.97;100.00;100540.09;5111005;28;20043;-53
2022/11/08 05:06:44;;;;;;;7.75;2.42;;;;;;;10.00;100.00;100543.47;5113587;28;20051;-54
2022/11/08 05:09:14;;;;;;;8.95;2.20;;;;;;;9.98;100.00;100539.16;5110246;28;20043;-54
2022/11/08 05:11:42;;;;;;;9.15;2.47;;;;;;;10.13;100.00;100539.06;5112148;27;20100;-54
2022/11/08 05:14:10;;;;;;;8.32;2.10;;;;;;;10.04;100.00;100537.06;5112500;28;20040;-55
2022/11/08 05:16:40;;;;;;;9.85;2.22;;;;;;;10.04;100.00;100531.81;5110909;28;20047;-55
2022/11/08 05:19:08;;;;;;;8.75;2.00;;;;;;;10.03;100.00;100528.31;5110965;28;20437;-52
2022/11/08 05:24:25;;;;;;;11.48;2.17;;;;;;;9.95;100.00;100528.88;5109215;28;20510;-53
2022/11/08 05:26:53;;;;;;;9.25;2.17;;;;;;;10.06;100.00;100514.13;5109369;28;20782;-53
2022/11/08 05:29:21;;;;;;;8.38;2.50;;;;;;;10.03;100.00;100507.31;5111044;28;20057;-52
2022/11/08 05:31:51;;;;;;;8.43;2.20;;;;;;;9.98;100.00;100489.25;5113537;28;20052;-54
2022/11/08 05:34:19;;;;;;;7.47;2.00;;;;;;;10.06;100.00;100486.09;5114035;28;20479;-52
2022/11/08 05:36:47;;;;;;;6.95;2.35;;;;;;;9.95;100.00;100481.56;5112656;28;20536;-53
2022/11/08 05:39:15;;;;;;;8.43;2.17;;;;;;;9.93;100.00;100472.94;5109928;28;20082;-53
2022/11/08 05:41:43;;;;;;;8.40;2.10;;;;;;;9.95;100.00;100476.31;5110504;28;20043;-56
2022/11/08 05:44:11;;;;;;;9.70;2.58;;;;;;;9.87;100.00;100473.38;5114031;27;20051;-53
2022/11/08 05:46:39;;;;;;;9.63;2.17;;;;;;;9.85;100.00;100464.75;5113300;28;20043;-53
2022/11/08 05:49:09;;;;;;;10.75;2.53;;;;;;;9.93;100.00;100474.75;5109582;28;20378;-54
2022/11/08 05:51:37;;;;;;;8.82;2.30;;;;;;;9.90;100.00;100474.97;5109869;28;20397;-53
2022/11/08 05:54:06;;;;;;;7.28;2.20;;;;;;;9.90;100.00;100464.44;5109381;28;20048;-53
2022/11/08 05:56:35;;;;;;;7.50;2.40;;;;;;;9.93;100.00;100465.06;5112874;28;20058;-53
2022/11/08 05:59:03;;;;;;;6.85;2.28;;;;;;;9.93;100.00;100467.69;5113327;28;20177;-53
2022/11/08 06:01:32;;;;;;;6.63;2.17;;;;;;;9.96;100.00;100459.59;5109958;28;20047;-53
2022/11/08 06:04:00;;;;;;;8.05;2.47;;;;;;;10.05;100.00;100462.53;5111424;28;20394;-52
2022/11/08 06:06:29;;;;;;;9.07;2.58;;;;;;;9.99;100.00;100448.03;5112900;28;20051;-53
2022/11/08 06:08:57;;;;;;;8.25;2.70;;;;;;;10.03;100.00;100459.19;5110107;28;20308;-52
2022/11/08 06:11:27;;;;;;;8.73;2.70;;;;;;;9.97;100.00;100445.50;5109629;28;20409;-52
2022/11/08 06:13:56;;;;;;;9.98;3.05;;;;;;;9.94;100.00;100451.00;5109803;28;20101;-51
2022/11/08 06:16:25;;;;;;;11.32;2.70;;;;;;;9.98;100.00;100444.56;5109654;28;20043;-52
2022/11/08 06:18:53;;;;;;;7.55;2.30;;;;;;;10.07;100.00;100444.88;5109615;28;20573;-53
2022/11/08 06:21:22;;;;;;;8.23;3.03;;;;;;;10.02;100.00;100442.59;5109201;28;20394;-53
2022/11/08 06:23:53;;;;;;;8.38;2.55;;;;;;;10.04;100.00;100448.56;5109536;28;20048;-52
2022/11/08 06:26:21;;;;;;;7.95;2.42;;;;;;;10.05;100.00;100452.03;5110230;28;20036;-54
2022/11/08 06:28:50;;;;;;;10.05;2.95;;;;;;;10.04;100.00;100461.69;5111434;28;20074;-53
2022/11/08 06:31:18;;;;;;;7.25;2.58;;;;;;;9.97;100.00;100461.28;5109282;28;20054;-54
2022/11/08 06:33:46;;;;;;;5.88;3.20;;;;;;;9.99;100.00;100463.78;5111245;28;20044;-53
2022/11/08 06:36:14;;;;;;;6.15;3.10;;;;;;;10.01;100.00;100456.66;5111638;28;20044;-53
2022/11/08 06:38:42;;;;;;;7.40;3.13;;;;;;;10.03;100.00;100469.69;5108948;28;20490;-53
2022/11/08 06:41:18;;;;;;;7.47;2.70;;;;;;;10.01;100.00;100461.06;5110049;28;20563;-52
2022/11/08 06:43:47;;;;;;;8.95;2.80;;;;;;;10.03;100.00;100469.69;5112107;28;20051;-47
2022/11/08 06:46:15;;;;;;;9.45;2.70;;;;;;;9.95;100.00;100468.44;5112048;28;20086;-48
2022/11/08 06:48:43;;;;;;;9.27;3.10;;;;;;;9.93;100.00;100454.56;5111842;28;20051;-50
2022/11/08 06:51:17;;;;;;;8.88;3.08;;;;;;;9.94;100.00;100461.50;5112509;28;20074;-47
2022/11/08 06:53:45;;;;;;;9.32;2.85;;;;;;;9.96;100.00;100462.22;5112568;28;20035;-47
2022/11/08 06:56:15;;;;;;;7.65;2.67;;;;;;;9.98;100.00;100457.72;5112742;28;20505;-48
2022/11/08 06:58:43;;;;;;;9.55;3.08;;;;;;;10.04;100.00;100453.81;5109715;28;20052;-53
2022/11/08 07:01:12;;;;;;;8.35;2.95;;;;;;;10.02;100.00;100473.25;5109354;28;20047;-54
2022/11/08 07:03:40;;;;;;;7.20;2.65;;;;;;;10.05;100.00;100463.38;5108445;28;20035;-49
2022/11/08 07:06:09;;;;;;;7.15;2.67;;;;;;;10.13;100.00;100460.25;5108120;28;20571;-52
2022/11/08 07:08:37;;;;;;;7.03;2.63;;;;;;;10.23;100.00;100456.00;5108230;28;20108;-49
2022/11/08 07:11:05;;;;;;;6.05;2.67;;;;;;;10.15;100.00;100453.06;5109057;28;20493;-52
2022/11/08 07:13:35;;;;;;;5.95;2.47;;;;;;;10.22;100.00;100437.72;5108584;28;20150;-50
2022/11/08 07:16:03;;;;;;;6.65;2.70;;;;;;;10.16;100.00;100444.25;5112559;28;20039;-53
2022/11/08 07:18:31;;;;;;;7.72;2.63;;;;;;;10.27;100.00;100438.25;5112312;28;20077;-50
2022/11/08 07:21:00;;;;;;;10.02;3.28;;;;;;;10.21;100.00;100450.03;5112601;28;20450;-48
2022/11/08 07:23:29;;;;;;;6.72;2.30;;;;;;;10.30;100.00;100466.94;5112388;28;20043;-51
2022/11/08 07:26:01;;;;;;;7.50;3.00;;;;;;;10.30;100.00;100465.13;5112506;28;20063;-47
2022/11/08 07:28:30;;;;;;;10.60;2.90;;;;;;;10.32;100.00;100470.28;5112330;28;20483;-47
2022/11/08 07:31:03;;;;;;;7.68;2.75;;;;;;;10.29;100.00;100466.09;5110946;28;20051;-46
2022/11/08 07:33:31;;;;;;;8.57;2.67;;;;;;;10.26;100.00;100479.44;5112287;28;20036;-48
2022/11/08 07:36:00;;;;;;;7.93;2.53;;;;;;;10.29;100.00;100466.09;5112292;28;20048;-49
2022/11/08 07:38:28;;;;;;;6.10;2.33;;;;;;;10.36;100.00;100465.69;5112162;28;20051;-50
2022/11/08 07:40:57;;;;;;;8.20;2.40;;;;;;;10.36;100.00;100449.91;5112134;28;20383;-50
2022/11/08 07:43:27;;;;;;;5.38;2.30;;;;;;;10.37;100.00;100459.50;5112218;28;20052;-48
2022/11/08 07:45:59;;;;;;;7.20;2.20;;;;;;;10.43;100.00;100456.41;5111981;28;20044;-49
2022/11/08 07:48:30;;;;;;;7.43;2.42;;;;;;;10.48;100.00;100455.16;5112160;28;20039;-54
2022/11/08 07:50:58;;;;;;;5.68;2.33;;;;;;;10.51;100.00;100455.88;5114414;28;20051;-53
2022/11/08 07:53:26;;;;;;;7.82;2.35;;;;;;;10.52;100.00;100460.19;5112322;28;20048;-50
2022/11/08 07:55:54;;;;;;;6.53;2.50;;;;;;;10.55;100.00;100463.47;5112751;28;20046;-51
2022/11/08 07:58:23;;;;;;;6.93;2.30;;;;;;;10.62;100.00;100463.84;5115745;28;20071;-50
2022/11/08 08:00:51;;;;;;;5.05;2.17;;;;;;;10.71;100.00;100457.94;5115756;28;20126;-51
2022/11/08 08:03:21;;;;;;;6.72;1.95;;;;;;;10.80;100.00;100448.56;5115718;28;20082;-51
2022/11/08 08:05:52;;;;;;;7.28;2.20;;;;;;;10.91;100.00;100445.16;5115689;28;20055;-54
2022/11/08 08:08:27;;;;;;;6.70;2.05;;;;;;;10.95;100.00;100436.91;5115070;28;20035;-50
2022/11/08 08:10:58;;;;;;;5.95;2.15;;;;;;;11.03;100.00;100432.84;5115144;28;20054;-52
2022/11/08 08:13:26;;;;;;;7.38;2.65;;;;;;;11.08;100.00;100433.38;5115664;28;20048;-51
2022/11/08 08:15:57;;;;;;;6.88;2.10;;;;;;;11.15;100.00;100429.31;5115545;28;20038;-50
2022/11/08 08:18:27;;;;;;;6.78;2.47;;;;;;;11.09;100.00;100421.91;5115329;28;20096;-52
2022/11/08 08:20:55;;;;;;;7.80;2.67;;;;;;;11.09;100.00;100428.00;5115428;28;20055;-51
2022/11/08 08:23:23;;;;;;;5.30;2.00;;;;;;;11.11;100.00;100420.84;5114168;28;20044;-52
2022/11/08 08:25:52;;;;;;;7.25;2.28;;;;;;;11.13;100.00;100418.91;5113191;28;20047;-52
2022/11/08 08:28:20;;;;;;;6.18;2.10;;;;;;;11.16;100.00;100429.19;5112015;27;20104;-52
2022/11/08 08:30:48;;;;;;;4.50;2.30;;;;;;;11.22;100.00;100441.09;5114282;28;20059;-56
2022/11/08 08:33:17;;;;;;;6.47;2.05;;;;;;;11.23;100.00;100440.13;5115307;28;20051;-52
2022/11/08 08:36:03;;;;;;;6.78;2.05;;;;;;;11.36;100.00;100439.19;5115126;28;20039;-52
2022/11/08 08:38:32;;;;;;;4.75;1.92;;;;;;;11.41;100.00;100452.88;5114387;27;20126;-54
2022/11/08 08:41:01;;;;;;;5.05;1.80;;;;;;;11.44;100.00;100436.88;5114879;28;20077;-51
2022/11/08 08:43:31;;;;;;;3.88;1.92;;;;;;;11.52;100.00;100446.78;5113523;28;20051;-51
2022/11/08 08:46:00;;;;;;;7.63;2.05;;;;;;;11.58;100.00;100438.44;5111755;28;20654;-50
2022/11/08 08:48:28;;;;;;;8.25;2.10;;;;;;;11.61;100.00;100439.03;5110898;28;20493;-49
2022/11/08 08:50:56;;;;;;;8.20;1.80;;;;;;;11.69;100.00;100440.25;5115136;27;20043;-48
2022/11/08 08:53:26;;;;;;;4.70;1.90;;;;;;;11.72;100.00;100453.19;5113575;28;20058;-51
2022/11/08 08:55:54;;;;;;;5.97;1.75;;;;;;;11.74;100.00;100446.00;5114639;28;20110;-51
2022/11/08 08:58:23;;;;;;;6.32;1.83;;;;;;;11.77;100.00;100453.69;5114549;28;20055;-53
2022/11/08 09:00:51;;;;;;;5.15;2.00;;;;;;;11.86;100.00;100447.69;5114269;28;20043;-54
2022/11/08 09:03:39;;;;;;;4.22;1.80;;;;;;;11.90;100.00;100446.53;5114113;28;20495;-52
2022/11/08 09:06:07;;;;;;;7.38;2.17;;;;;;;11.96;100.00;100451.34;5109980;28;20520;-50
2022/11/08 09:08:37;;;;;;;7.63;1.77;;;;;;;12.09;100.00;100442.47;5110807;27;20043;-51
2022/11/08 09:11:05;;;;;;;5.68;2.10;;;;;;;12.03;100.00;100451.72;5111108;28;20047;-53
2022/11/08 09:13:33;;;;;;;5.93;2.17;;;;;;;12.07;100.00;100457.59;5110969;28;20047;-49
2022/11/08 09:16:02;;;;;;;5.70;2.20;;;;;;;12.15;100.00;100452.56;5113619;28;20043;-53
2022/11/08 09:18:31;;;;;;;6.53;2.00;;;;;;;12.10;100.00;100439.72;5110968;28;20047;-51
2022/11/08 09:21:00;;;;;;;4.60;1.80;;;;;;;12.14;100.00;100450.88;5111280;28;20054;-51
2022/11/08 09:23:28;;;;;;;5.43;2.05;;;;;;;12.14;100.00;100448.25;5113396;28;20043;-53
2022/11/08 09:25:58;;;;;;;7.35;1.75;;;;;;;12.17;100.00;100440.94;5110570;28;20488;-51
2022/11/08 09:28:27;;;;;;;5.03;1.85;;;;;;;12.17;100.00;100430.41;5110857;28;20490;-52
2022/11/08 09:31:03;;;;;;;4.88;2.00;;;;;;;12.21;100.00;100407.25;5110738;28;20048;-53
2022/11/08 09:33:32;;;;;;;4.68;1.95;;;;;;;12.22;100.00;100410.75;5110593;28;20105;-51
2022/11/08 09:36:00;;;;;;;5.65;1.88;;;;;;;12.23;100.00;100415.88;5110424;28;20509;-50
2022/11/08 09:38:28;;;;;;;6.80;2.20;;;;;;;12.25;100.00;100424.50;5110306;28;20048;-53
2022/11/08 09:41:16;;;;;;;5.70;2.00;;;;;;;12.25;100.00;100424.50;5110300;28;20070;-52
2022/11/08 09:43:59;;;;;;;5.30;1.90;;;;;;;12.34;100.00;100421.16;5110308;28;20043;-53
2022/11/08 09:46:36;;;;;;;6.60;1.80;;;;;;;12.46;100.00;100407.94;5110441;28;20044;-53
2022/11/08 09:49:10;;;;;;;6.28;2.22;;;;;;;12.48;100.00;100412.13;5110393;28;20039;-52
2022/11/08 09:51:40;;;;;;;5.10;2.05;;;;;;;12.52;100.00;100416.19;5112595;28;20044;-52
2022/11/08 09:54:17;;;;;;;5.68;1.85;;;;;;;12.60;100.00;100414.75;5113767;27;20389;-53
2022/11/08 09:56:50;;;;;;;5.97;1.95;;;;;;;12.61;100.00;100413.78;5113495;28;20085;-57
2022/11/08 09:59:32;;;;;;;5.90;2.10;;;;;;;12.57;100.00;100410.56;5113560;28;20097;-58
2022/11/08 10:02:00;;;;;;;4.93;1.90;;;;;;;12.65;100.00;100418.69;5112377;28;20048;-56
2022/11/08 10:04:32;;;;;;;5.63;2.00;;;;;;;12.70;100.00;100430.69;5113283;28;20044;-56
2022/11/08 10:07:21;;;;;;;4.85;2.00;;;;;;;12.78;100.00;100422.97;5109948;28;20089;-56
2022/11/08 10:10:09;;;;;;;17.95;4.05;;;;;;;12.78;100.00;100429.09;5110967;28;20059;-56
2022/11/08 10:12:49;;;;;;;5.22;1.80;;;;;;;12.77;100.00;100426.56;5113035;28;20104;-56
2022/11/08 10:15:25;;;;;;;6.95;2.03;;;;;;;12.81;100.00;100418.28;5112141;28;20050;-53
2022/11/08 10:18:08;;;;;;;7.30;1.85;;;;;;;12.83;100.00;100426.09;5109509;28;20055;-53
2022/11/08 10:20:48;;;;;;;9.20;2.50;;;;;;;12.88;100.00;100431.81;5109361;28;20042;-54
2022/11/08 10:23:21;;;;;;;4.75;1.85;;;;;;;12.91;100.00;100414.88;5112444;28;20044;-56
2022/11/08 10:25:54;;;;;;;5.43;2.03;;;;;;;12.96;100.00;100433.84;5112473;28;20051;-56
2022/11/08 10:28:26;;;;;;;;;;;;;;;13.10;100.00;100430.06;5110204;28;20532;-57
2022/11/08 10:30:55;;;;;;;4.25;1.70;;;;;;;13.11;100.00;100429.94;5108625;28;20267;-57
2022/11/08 10:33:29;;;;;;;5.85;2.00;;;;;;;13.13;100.00;100432.44;5108771;28;20092;-57
2022/11/08 10:36:00;;;;;;;6.82;2.17;;;;;;;13.21;100.00;100430.03;5108331;28;20097;-57
2022/11/08 10:38:36;;;;;;;6.32;1.95;;;;;;;13.25;100.00;100434.09;5109565;28;20521;-57
2022/11/08 10:41:10;;;;;;;4.43;1.75;;;;;;;13.23;100.00;100435.19;5112554;28;20051;-57
2022/11/08 10:43:44;;;;;;;5.93;1.70;;;;;;;13.31;100.00;100438.03;5112559;28;20494;-57
2022/11/08 10:46:29;;;;;;;8.68;2.30;;;;;;;13.41;100.00;100438.13;5109442;28;20048;-57
2022/11/08 10:49:07;;;;;;;7.13;2.03;;;;;;;13.49;100.00;100433.84;5109749;28;20449;-57
2022/11/08 10:51:35;;;;;;;5.47;1.95;;;;;;;13.59;100.00;100439.19;5109804;28;20056;-57
2022/11/08 10:54:03;;;;;;;5.10;1.75;;;;;;;13.69;100.00;100440.09;5108378;28;20047;-57
2022/11/08 10:56:54;;;;;;;4.38;1.60;;;;;;;13.68;100.00;100456.91;5109410;28;20438;-57
2022/11/08 10:59:33;;;;;;;5.13;1.75;;;;;;;13.65;100.00;100438.69;5109689;28;20047;-57
2022/11/08 11:02:01;;;;;;;6.28;1.95;;;;;;;13.75;100.00;100441.38;5109081;28;20064;-57
2022/11/08 11:04:31;;;;;;;6.18;1.50;;;;;;;13.72;100.00;100424.97;5108739;28;20078;-57
2022/11/08 11:07:01;;;;;;;4.78;1.77;;;;;;;13.69;100.00;100440.09;5109067;28;20435;-57
2022/11/08 11:09:30;;;;;;;5.18;1.90;;;;;;;13.74;100.00;100428.31;5107645;28;20151;-56
2022/11/08 11:12:06;;;;;;;4.45;1.75;;;;;;;13.67;100.00;100433.28;5110715;28;20052;-56
2022/11/08 11:14:36;;;;;;;6.05;1.83;;;;;;;13.72;100.00;100423.16;5112496;28;20107;-57
2022/11/08 11:17:14;;;;;;;8.73;2.10;;;;;;;13.76;100.00;100423.75;5112350;28;20134;-56
2022/11/08 11:19:51;;;;;;;4.45;1.50;;;;;;;13.79;100.00;100420.84;5112544;28;20055;-58
2022/11/08 11:22:27;;;;;;;7.20;1.65;;;;;;;13.82;100.00;100424.03;5112419;28;20071;-58
2022/11/08 11:24:56;;;;;;;5.15;1.58;;;;;;;13.81;100.00;100421.53;5110400;28;20108;-58
2022/11/08 11:27:29;;;;;;;7.18;1.90;;;;;;;13.81;100.00;100417.09;5113067;28;20490;-58
2022/11/08 11:30:20;;;;;;;;;;;;;;;13.90;100.00;100415.44;5116167;27;20051;-58
2022/11/08 11:32:56;;;;;;;4.60;1.55;;;;;;;13.93;100.00;100414.34;5112700;28;19955;-58
2022/11/08 11:35:28;;;;;;;5.97;1.98;;;;;;;14.08;100.00;100404.25;5112098;27;20064;-57
2022/11/08 11:37:59;;;;;;;4.07;1.67;;;;;;;14.15;100.00;100406.25;5111743;28;20460;-57
2022/11/08 11:40:33;;;;;;;5.38;1.70;;;;;;;14.23;100.00;100389.69;5111918;28;20051;-55
2022/11/08 11:43:08;;;;;;;3.80;1.75;;;;;;;14.22;100.00;100398.63;5112987;27;20089;-56
2022/11/08 11:45:46;;;;;;;6.75;2.05;;;;;;;14.28;100.00;100386.66;5112502;28;20490;-56
2022/11/08 11:48:17;;;;;;;6.55;1.85;;;;;;;14.29;100.00;100380.38;5114959;28;20086;-56
2022/11/08 11:50:48;;;;;;;5.28;1.63;;;;;;;14.30;100.00;100397.94;5115877;28;20040;-56
2022/11/08 11:53:21;;;;;;;5.70;1.65;;;;;;;14.39;100.00;100385.72;5112571;28;20082;-57
2022/11/08 11:56:11;;;;;;;8.25;1.90;;;;;;;14.28;100.00;100384.84;5111365;28;20043;-56